CheckWX is a tool to help pilots better visualize weather data.  It is not intended as a substitute for an official pre-flight weather briefing.

07:09:21 UTC

KLAF METAR
Purdue University Airport
Lafayette, Indiana, USA
Current

15 mins ago

KLAF 230654Z AUTO 21006KT 2 1/2SM -RA BR BKN009 OVC016 22/21 A2988 RMK AO2 RAB42 CIG 005V013 SLP113 P0007 T02170206 $
Observed
Sep-23 @ 06:54 UTC
Wind
  • 210° at 6 KTS
Visibility
2 1/2 SM
Flight Rules
IFR
Conditions
Light Rain, Mist
Cloud Levels
  • Broken at 900' AGL
  • Overcast at 1,600' AGL
Temperature
22°C / 72°F
Dewpoint
21°C / 70°F
Humidity
94%
Altimeter
29.88" Hg
Pressure
1011.82 hPa
Current Rain
0.07"
Previous

1 hour ago

KLAF 230554Z AUTO 22005KT 10SM BKN013 OVC019 22/21 A2988 RMK AO2 SLP113 60009 T02220211 10261 20222 58009 $
Observed
Sep-23 @ 05:54 UTC
Wind
  • 220° at 5 KTS
Visibility
10 SM
Flight Rules
MVFR
Cloud Levels
  • Broken at 1,300' AGL
  • Overcast at 1,900' AGL
Temperature
22°C / 72°F
Dewpoint
21°C / 70°F
Humidity
94%
Altimeter
29.88" Hg
Pressure
1011.82 hPa
Previous

1 hour ago

KLAF 230545Z AUTO 21007KT 10SM BKN013 OVC019 22/21 A2989 RMK AO2 T02220206 $
Observed
Sep-23 @ 05:45 UTC
Wind
  • 210° at 7 KTS
Visibility
10 SM
Flight Rules
MVFR
Cloud Levels
  • Broken at 1,300' AGL
  • Overcast at 1,900' AGL
Temperature
22°C / 72°F
Dewpoint
21°C / 70°F
Humidity
94%
Altimeter
29.89" Hg
Pressure
1012.22 hPa